sensor_id;sensor_type;location;lat;lon;timestamp;pressure;altitude;pressure_sealevel;temperature;humidity
77381;BME280;66439;50.106;10.996;2023-06-10T00:00:27;98455.25;;;20.13;49.52
77381;BME280;66439;50.106;10.996;2023-06-10T00:02:50;98460.14;;;20.06;49.97
77381;BME280;66439;50.106;10.996;2023-06-10T00:04:52;98458.95;;;20.02;49.96
77381;BME280;66439;50.106;10.996;2023-06-10T00:06:57;98458.27;;;19.99;50.07
77381;BME280;66439;50.106;10.996;2023-06-10T00:08:59;98462.66;;;19.94;50.20
77381;BME280;66439;50.106;10.996;2023-06-10T00:11:06;98457.85;;;19.88;50.42
77381;BME280;66439;50.106;10.996;2023-06-10T00:13:09;98461.02;;;19.86;50.43
77381;BME280;66439;50.106;10.996;2023-06-10T00:15:13;98458.60;;;19.84;50.53
77381;BME280;66439;50.106;10.996;2023-06-10T00:17:16;98459.79;;;19.84;50.48
77381;BME280;66439;50.106;10.996;2023-06-10T00:19:18;98460.36;;;19.83;50.40
77381;BME280;66439;50.106;10.996;2023-06-10T00:21:24;98463.05;;;19.78;50.42
77381;BME280;66439;50.106;10.996;2023-06-10T00:23:26;98463.85;;;19.69;50.53
77381;BME280;66439;50.106;10.996;2023-06-10T00:25:33;98466.33;;;19.57;50.65
77381;BME280;66439;50.106;10.996;2023-06-10T00:27:35;98465.63;;;19.50;50.72
77381;BME280;66439;50.106;10.996;2023-06-10T00:29:38;98463.05;;;19.47;50.95
77381;BME280;66439;50.106;10.996;2023-06-10T00:31:41;98463.16;;;19.48;51.15
77381;BME280;66439;50.106;10.996;2023-06-10T00:33:44;98466.29;;;19.47;51.09
77381;BME280;66439;50.106;10.996;2023-06-10T00:35:47;98470.31;;;19.46;51.02
77381;BME280;66439;50.106;10.996;2023-06-10T00:37:49;98466.65;;;19.46;51.18
77381;BME280;66439;50.106;10.996;2023-06-10T00:39:52;98468.67;;;19.44;51.07
77381;BME280;66439;50.106;10.996;2023-06-10T00:41:56;98468.35;;;19.37;51.07
77381;BME280;66439;50.106;10.996;2023-06-10T00:43:59;98462.86;;;19.34;51.19
77381;BME280;66439;50.106;10.996;2023-06-10T00:46:01;98459.48;;;19.32;51.27
77381;BME280;66439;50.106;10.996;2023-06-10T00:48:05;98461.94;;;19.31;51.57
77381;BME280;66439;50.106;10.996;2023-06-10T00:50:08;98463.08;;;19.31;51.44
77381;BME280;66439;50.106;10.996;2023-06-10T00:52:11;98462.20;;;19.30;51.51
77381;BME280;66439;50.106;10.996;2023-06-10T00:54:15;98464.49;;;19.28;51.46
77381;BME280;66439;50.106;10.996;2023-06-10T00:56:18;98465.05;;;19.27;51.57
77381;BME280;66439;50.106;10.996;2023-06-10T00:58:21;98464.10;;;19.24;51.61
77381;BME280;66439;50.106;10.996;2023-06-10T01:00:24;98467.97;;;19.16;51.66
77381;BME280;66439;50.106;10.996;2023-06-10T01:02:27;98468.05;;;19.06;51.99
77381;BME280;66439;50.106;10.996;2023-06-10T01:04:32;98465.07;;;18.97;52.09
77381;BME280;66439;50.106;10.996;2023-06-10T01:06:57;98466.10;;;18.92;52.32
77381;BME280;66439;50.106;10.996;2023-06-10T01:09:32;98465.95;;;18.89;52.49
77381;BME280;66439;50.106;10.996;2023-06-10T01:11:43;98465.66;;;18.88;52.61
77381;BME280;66439;50.106;10.996;2023-06-10T01:13:49;98468.23;;;18.88;52.41
77381;BME280;66439;50.106;10.996;2023-06-10T01:15:54;98472.61;;;18.88;52.55
77381;BME280;66439;50.106;10.996;2023-06-10T01:17:59;98471.04;;;18.87;52.30
77381;BME280;66439;50.106;10.996;2023-06-10T01:20:05;98471.25;;;18.84;52.42
77381;BME280;66439;50.106;10.996;2023-06-10T01:22:14;98470.00;;;18.83;52.60
77381;BME280;66439;50.106;10.996;2023-06-10T01:24:19;98473.40;;;18.81;52.43
77381;BME280;66439;50.106;10.996;2023-06-10T01:26:30;98473.77;;;18.78;52.54
77381;BME280;66439;50.106;10.996;2023-06-10T01:28:58;98475.85;;;18.66;52.74
77381;BME280;66439;50.106;10.996;2023-06-10T01:33:34;98471.75;;;18.37;53.43
77381;BME280;66439;50.106;10.996;2023-06-10T01:35:38;98478.42;;;18.29;53.51
77381;BME280;66439;50.106;10.996;2023-06-10T01:37:46;98475.02;;;18.15;53.67
77381;BME280;66439;50.106;10.996;2023-06-10T01:39:50;98479.11;;;18.05;54.09
77381;BME280;66439;50.106;10.996;2023-06-10T01:41:54;98477.81;;;17.91;54.48
77381;BME280;66439;50.106;10.996;2023-06-10T01:43:56;98476.42;;;17.85;54.68
77381;BME280;66439;50.106;10.996;2023-06-10T01:45:59;98475.36;;;17.81;54.82
77381;BME280;66439;50.106;10.996;2023-06-10T01:48:02;98474.86;;;17.76;54.98
77381;BME280;66439;50.106;10.996;2023-06-10T01:50:05;98480.91;;;17.71;55.32
77381;BME280;66439;50.106;10.996;2023-06-10T01:52:10;98475.98;;;17.67;55.61
77381;BME280;66439;50.106;10.996;2023-06-10T01:54:13;98469.37;;;17.65;55.59
77381;BME280;66439;50.106;10.996;2023-06-10T01:56:16;98473.80;;;17.63;55.92
77381;BME280;66439;50.106;10.996;2023-06-10T01:58:22;98474.36;;;17.59;56.35
77381;BME280;66439;50.106;10.996;2023-06-10T02:00:24;98474.30;;;17.57;56.35
77381;BME280;66439;50.106;10.996;2023-06-10T02:02:28;98479.49;;;17.61;56.31
77381;BME280;66439;50.106;10.996;2023-06-10T02:04:31;98476.11;;;17.63;56.27
77381;BME280;66439;50.106;10.996;2023-06-10T02:06:35;98475.52;;;17.61;56.34
77381;BME280;66439;50.106;10.996;2023-06-10T02:08:40;98475.29;;;17.58;56.43
77381;BME280;66439;50.106;10.996;2023-06-10T02:10:42;98475.00;;;17.55;56.64
77381;BME280;66439;50.106;10.996;2023-06-10T02:12:45;98474.44;;;17.54;56.74
77381;BME280;66439;50.106;10.996;2023-06-10T02:14:47;98471.02;;;17.54;56.68
77381;BME280;66439;50.106;10.996;2023-06-10T02:16:50;98472.23;;;17.51;56.70
77381;BME280;66439;50.106;10.996;2023-06-10T02:18:53;98475.83;;;17.43;56.91
77381;BME280;66439;50.106;10.996;2023-06-10T02:20:57;98475.15;;;17.37;57.00
77381;BME280;66439;50.106;10.996;2023-06-10T02:23:03;98473.50;;;17.35;56.84
77381;BME280;66439;50.106;10.996;2023-06-10T02:25:07;98470.70;;;17.34;57.18
77381;BME280;66439;50.106;10.996;2023-06-10T02:27:10;98469.60;;;17.30;57.21
77381;BME280;66439;50.106;10.996;2023-06-10T02:29:13;98475.85;;;17.33;57.03
77381;BME280;66439;50.106;10.996;2023-06-10T02:31:15;98475.96;;;17.36;56.95
77381;BME280;66439;50.106;10.996;2023-06-10T02:33:21;98474.49;;;17.39;56.99
77381;BME280;66439;50.106;10.996;2023-06-10T02:35:25;98479.89;;;17.38;57.05
77381;BME280;66439;50.106;10.996;2023-06-10T02:37:29;98480.30;;;17.31;57.01
77381;BME280;66439;50.106;10.996;2023-06-10T02:39:32;98477.70;;;17.30;56.96
77381;BME280;66439;50.106;10.996;2023-06-10T02:41:35;98474.95;;;17.29;56.96
77381;BME280;66439;50.106;10.996;2023-06-10T02:43:38;98476.94;;;17.27;57.02
77381;BME280;66439;50.106;10.996;2023-06-10T02:45:42;98480.79;;;17.21;57.15
77381;BME280;66439;50.106;10.996;2023-06-10T02:47:45;98473.48;;;17.15;57.26
77381;BME280;66439;50.106;10.996;2023-06-10T02:49:48;98477.48;;;17.16;57.47
77381;BME280;66439;50.106;10.996;2023-06-10T02:51:51;98476.95;;;17.16;57.36
77381;BME280;66439;50.106;10.996;2023-06-10T02:53:56;98480.36;;;17.17;57.25
77381;BME280;66439;50.106;10.996;2023-06-10T02:55:58;98481.27;;;17.19;57.32
77381;BME280;66439;50.106;10.996;2023-06-10T02:58:03;98479.77;;;17.22;57.32
77381;BME280;66439;50.106;10.996;2023-06-10T03:00:06;98476.92;;;17.22;57.16
77381;BME280;66439;50.106;10.996;2023-06-10T03:02:14;98480.53;;;17.16;57.21
77381;BME280;66439;50.106;10.996;2023-06-10T03:04:20;98477.55;;;17.11;57.40
77381;BME280;66439;50.106;10.996;2023-06-10T03:06:29;98479.08;;;17.07;57.56
77381;BME280;66439;50.106;10.996;2023-06-10T03:08:39;98477.50;;;16.99;57.83
77381;BME280;66439;50.106;10.996;2023-06-10T03:10:45;98482.01;;;16.91;58.09
77381;BME280;66439;50.106;10.996;2023-06-10T03:12:50;98481.09;;;16.85;58.25
77381;BME280;66439;50.106;10.996;2023-06-10T03:14:53;98474.65;;;16.85;58.24
77381;BME280;66439;50.106;10.996;2023-06-10T03:16:55;98478.36;;;16.87;58.09
77381;BME280;66439;50.106;10.996;2023-06-10T03:18:59;98472.73;;;16.91;57.94
77381;BME280;66439;50.106;10.996;2023-06-10T03:21:02;98472.02;;;16.96;57.90
77381;BME280;66439;50.106;10.996;2023-06-10T03:23:05;98470.09;;;16.99;57.70
77381;BME280;66439;50.106;10.996;2023-06-10T03:25:13;98476.86;;;17.00;57.71
77381;BME280;66439;50.106;10.996;2023-06-10T03:27:21;98476.27;;;17.00;57.81
77381;BME280;66439;50.106;10.996;2023-06-10T03:29:25;98478.11;;;17.02;57.75
77381;BME280;66439;50.106;10.996;2023-06-10T03:31:29;98476.98;;;17.02;57.80
77381;BME280;66439;50.106;10.996;2023-06-10T03:33:33;98475.64;;;17.02;57.71
77381;BME280;66439;50.106;10.996;2023-06-10T03:35:36;98477.27;;;17.01;57.70
77381;BME280;66439;50.106;10.996;2023-06-10T03:37:40;98474.73;;;16.98;57.71
77381;BME280;66439;50.106;10.996;2023-06-10T03:39:43;98471.44;;;16.93;58.01
77381;BME280;66439;50.106;10.996;2023-06-10T03:41:45;98475.67;;;16.89;58.08
77381;BME280;66439;50.106;10.996;2023-06-10T03:43:48;98471.15;;;16.82;58.42
77381;BME280;66439;50.106;10.996;2023-06-10T03:45:51;98469.89;;;16.77;58.57
77381;BME280;66439;50.106;10.996;2023-06-10T03:47:55;98471.49;;;16.74;58.73
77381;BME280;66439;50.106;10.996;2023-06-10T03:50:03;98475.27;;;16.71;58.92
77381;BME280;66439;50.106;10.996;2023-06-10T03:52:06;98478.02;;;16.69;58.90
77381;BME280;66439;50.106;10.996;2023-06-10T03:54:09;98475.16;;;16.68;59.05
77381;BME280;66439;50.106;10.996;2023-06-10T03:56:12;98475.45;;;16.65;59.13
77381;BME280;66439;50.106;10.996;2023-06-10T03:58:17;98480.86;;;16.62;59.28
77381;BME280;66439;50.106;10.996;2023-06-10T04:00:22;98480.10;;;16.60;59.36
77381;BME280;66439;50.106;10.996;2023-06-10T04:02:24;98484.95;;;16.58;59.59
77381;BME280;66439;50.106;10.996;2023-06-10T04:04:28;98484.15;;;16.51;59.80
77381;BME280;66439;50.106;10.996;2023-06-10T04:06:32;98484.41;;;16.45;60.04
77381;BME280;66439;50.106;10.996;2023-06-10T04:08:35;98489.73;;;16.40;60.43
77381;BME280;66439;50.106;10.996;2023-06-10T04:10:38;98488.30;;;16.38;60.30
77381;BME280;66439;50.106;10.996;2023-06-10T04:12:41;98487.30;;;16.39;60.30
77381;BME280;66439;50.106;10.996;2023-06-10T04:14:45;98489.89;;;16.43;60.45
77381;BME280;66439;50.106;10.996;2023-06-10T04:16:49;98490.83;;;16.46;60.58
77381;BME280;66439;50.106;10.996;2023-06-10T04:18:53;98492.20;;;16.49;60.53
77381;BME280;66439;50.106;10.996;2023-06-10T04:20:55;98490.48;;;16.55;60.58
77381;BME280;66439;50.106;10.996;2023-06-10T04:22:59;98492.31;;;16.58;60.55
77381;BME280;66439;50.106;10.996;2023-06-10T04:25:02;98487.55;;;16.56;60.80
77381;BME280;66439;50.106;10.996;2023-06-10T04:27:05;98492.85;;;16.58;60.87
77381;BME280;66439;50.106;10.996;2023-06-10T04:29:08;98493.14;;;16.60;60.75
77381;BME280;66439;50.106;10.996;2023-06-10T04:31:11;98494.27;;;16.68;60.74
77381;BME280;66439;50.106;10.996;2023-06-10T04:33:15;98493.69;;;16.76;60.67
77381;BME280;66439;50.106;10.996;2023-06-10T04:35:18;98497.04;;;16.83;60.74
77381;BME280;66439;50.106;10.996;2023-06-10T04:37:21;98494.42;;;16.88;60.70
77381;BME280;66439;50.106;10.996;2023-06-10T04:39:25;98501.06;;;16.95;60.77
77381;BME280;66439;50.106;10.996;2023-06-10T04:41:28;98495.78;;;17.00;60.59
77381;BME280;66439;50.106;10.996;2023-06-10T04:43:32;98493.86;;;17.07;60.67
77381;BME280;66439;50.106;10.996;2023-06-10T04:45:35;98494.38;;;17.11;60.67
77381;BME280;66439;50.106;10.996;2023-06-10T04:47:38;98495.88;;;17.15;60.63
77381;BME280;66439;50.106;10.996;2023-06-10T04:49:42;98495.73;;;17.17;60.63
77381;BME280;66439;50.106;10.996;2023-06-10T04:51:44;98493.36;;;17.22;60.50
77381;BME280;66439;50.106;10.996;2023-06-10T04:53:49;98498.46;;;17.26;60.29
77381;BME280;66439;50.106;10.996;2023-06-10T04:55:52;98498.99;;;17.33;60.15
77381;BME280;66439;50.106;10.996;2023-06-10T04:57:55;98501.15;;;17.39;60.26
77381;BME280;66439;50.106;10.996;2023-06-10T04:59:58;98507.83;;;17.44;60.12
77381;BME280;66439;50.106;10.996;2023-06-10T05:02:01;98508.27;;;17.44;60.20
77381;BME280;66439;50.106;10.996;2023-06-10T05:04:04;98509.67;;;17.47;60.07
77381;BME280;66439;50.106;10.996;2023-06-10T05:06:08;98511.30;;;17.50;60.12
77381;BME280;66439;50.106;10.996;2023-06-10T05:08:11;98511.10;;;17.55;59.99
77381;BME280;66439;50.106;10.996;2023-06-10T05:10:13;98515.55;;;17.62;60.03
77381;BME280;66439;50.106;10.996;2023-06-10T05:12:17;98513.54;;;17.68;59.77
77381;BME280;66439;50.106;10.996;2023-06-10T05:14:19;98515.77;;;17.75;59.66
77381;BME280;66439;50.106;10.996;2023-06-10T05:16:23;98519.80;;;17.82;59.38
77381;BME280;66439;50.106;10.996;2023-06-10T05:18:26;98518.51;;;17.87;59.29
77381;BME280;66439;50.106;10.996;2023-06-10T05:20:29;98516.75;;;17.90;59.30
77381;BME280;66439;50.106;10.996;2023-06-10T05:22:32;98518.70;;;17.92;59.15
77381;BME280;66439;50.106;10.996;2023-06-10T05:24:39;98521.86;;;17.98;59.21
77381;BME280;66439;50.106;10.996;2023-06-10T05:26:42;98516.58;;;18.02;59.08
77381;BME280;66439;50.106;10.996;2023-06-10T05:28:47;98519.88;;;18.05;58.93
77381;BME280;66439;50.106;10.996;2023-06-10T05:30:50;98519.22;;;18.07;58.90
77381;BME280;66439;50.106;10.996;2023-06-10T05:32:53;98514.36;;;18.11;58.83
77381;BME280;66439;50.106;10.996;2023-06-10T05:34:58;98511.39;;;18.16;58.85
77381;BME280;66439;50.106;10.996;2023-06-10T05:37:03;98513.95;;;18.17;58.78
77381;BME280;66439;50.106;10.996;2023-06-10T05:39:06;98512.36;;;18.21;58.75
77381;BME280;66439;50.106;10.996;2023-06-10T05:41:08;98516.23;;;18.28;58.72
77381;BME280;66439;50.106;10.996;2023-06-10T05:43:11;98509.50;;;18.34;58.47
77381;BME280;66439;50.106;10.996;2023-06-10T05:45:14;98508.63;;;18.38;58.27
77381;BME280;66439;50.106;10.996;2023-06-10T05:47:16;98508.52;;;18.41;58.04
77381;BME280;66439;50.106;10.996;2023-06-10T05:49:19;98506.21;;;18.44;58.14
77381;BME280;66439;50.106;10.996;2023-06-10T05:51:24;98511.81;;;18.49;58.16
77381;BME280;66439;50.106;10.996;2023-06-10T05:53:27;98509.91;;;18.54;58.22
77381;BME280;66439;50.106;10.996;2023-06-10T05:55:30;98510.45;;;18.57;58.07
77381;BME280;66439;50.106;10.996;2023-06-10T05:57:33;98511.54;;;18.60;58.00
77381;BME280;66439;50.106;10.996;2023-06-10T05:59:36;98514.23;;;18.63;58.11
77381;BME280;66439;50.106;10.996;2023-06-10T06:01:39;98514.33;;;18.68;58.29
77381;BME280;66439;50.106;10.996;2023-06-10T06:03:42;98510.14;;;18.73;57.94
77381;BME280;66439;50.106;10.996;2023-06-10T06:05:45;98513.05;;;18.79;57.89
77381;BME280;66439;50.106;10.996;2023-06-10T06:07:48;98515.10;;;18.85;57.75
77381;BME280;66439;50.106;10.996;2023-06-10T06:09:51;98516.55;;;18.90;57.17
77381;BME280;66439;50.106;10.996;2023-06-10T06:11:53;98516.02;;;18.94;56.94
77381;BME280;66439;50.106;10.996;2023-06-10T06:13:56;98518.89;;;18.98;57.16
77381;BME280;66439;50.106;10.996;2023-06-10T06:16:00;98518.64;;;19.02;57.05
77381;BME280;66439;50.106;10.996;2023-06-10T06:18:02;98517.38;;;19.06;56.69
77381;BME280;66439;50.106;10.996;2023-06-10T06:20:06;98514.53;;;19.10;56.22
77381;BME280;66439;50.106;10.996;2023-06-10T06:22:10;98515.11;;;19.16;56.34
77381;BME280;66439;50.106;10.996;2023-06-10T06:24:16;98514.45;;;19.21;56.11
77381;BME280;66439;50.106;10.996;2023-06-10T06:26:19;98517.38;;;19.29;56.24
77381;BME280;66439;50.106;10.996;2023-06-10T06:28:21;98516.48;;;19.33;56.13
77381;BME280;66439;50.106;10.996;2023-06-10T06:30:25;98517.09;;;19.38;55.80
77381;BME280;66439;50.106;10.996;2023-06-10T06:32:28;98517.53;;;19.46;55.54
77381;BME280;66439;50.106;10.996;2023-06-10T06:34:32;98513.77;;;19.52;55.59
77381;BME280;66439;50.106;10.996;2023-06-10T06:36:36;98521.74;;;19.61;55.28
77381;BME280;66439;50.106;10.996;2023-06-10T06:38:38;98517.31;;;19.67;55.05
77381;BME280;66439;50.106;10.996;2023-06-10T06:40:41;98521.23;;;19.72;54.94
77381;BME280;66439;50.106;10.996;2023-06-10T06:42:44;98521.90;;;19.78;55.08
77381;BME280;66439;50.106;10.996;2023-06-10T06:45:06;98522.83;;;19.86;55.06
77381;BME280;66439;50.106;10.996;2023-06-10T06:47:09;98525.56;;;19.92;54.57
77381;BME280;66439;50.106;10.996;2023-06-10T06:49:12;98528.80;;;20.00;54.63
77381;BME280;66439;50.106;10.996;2023-06-10T06:51:15;98531.30;;;20.09;54.77
77381;BME280;66439;50.106;10.996;2023-06-10T06:53:17;98525.66;;;20.15;54.68
77381;BME280;66439;50.106;10.996;2023-06-10T06:55:20;98531.66;;;20.24;54.67
77381;BME280;66439;50.106;10.996;2023-06-10T06:57:24;98528.67;;;20.30;54.37
77381;BME280;66439;50.106;10.996;2023-06-10T06:59:27;98525.77;;;20.35;54.02
77381;BME280;66439;50.106;10.996;2023-06-10T07:01:33;98524.79;;;20.39;53.98
77381;BME280;66439;50.106;10.996;2023-06-10T07:03:36;98521.85;;;20.47;53.78
77381;BME280;66439;50.106;10.996;2023-06-10T07:05:39;98520.48;;;20.55;53.83
77381;BME280;66439;50.106;10.996;2023-06-10T07:07:42;98518.02;;;20.63;53.85
77381;BME280;66439;50.106;10.996;2023-06-10T07:09:45;98518.42;;;20.70;53.92
77381;BME280;66439;50.106;10.996;2023-06-10T07:11:48;98520.33;;;20.77;53.61
77381;BME280;66439;50.106;10.996;2023-06-10T07:13:52;98518.34;;;20.82;53.33
77381;BME280;66439;50.106;10.996;2023-06-10T07:15:57;98519.91;;;20.88;53.15
77381;BME280;66439;50.106;10.996;2023-06-10T07:18:01;98517.14;;;20.92;53.15
77381;BME280;66439;50.106;10.996;2023-06-10T07:20:04;98520.00;;;20.98;53.14
77381;BME280;66439;50.106;10.996;2023-06-10T07:22:07;98523.63;;;21.03;52.89
77381;BME280;66439;50.106;10.996;2023-06-10T07:24:11;98523.45;;;21.07;52.84
77381;BME280;66439;50.106;10.996;2023-06-10T07:26:14;98522.35;;;21.11;52.80
77381;BME280;66439;50.106;10.996;2023-06-10T07:28:17;98524.89;;;21.17;52.55
77381;BME280;66439;50.106;10.996;2023-06-10T07:30:21;98522.81;;;21.21;52.23
77381;BME280;66439;50.106;10.996;2023-06-10T07:32:23;98525.73;;;21.27;52.68
77381;BME280;66439;50.106;10.996;2023-06-10T07:34:26;98526.58;;;21.34;52.37
77381;BME280;66439;50.106;10.996;2023-06-10T07:36:29;98524.48;;;21.42;52.14
77381;BME280;66439;50.106;10.996;2023-06-10T07:38:32;98524.66;;;21.50;52.19
77381;BME280;66439;50.106;10.996;2023-06-10T07:40:35;98519.73;;;21.58;51.94
77381;BME280;66439;50.106;10.996;2023-06-10T07:42:40;98520.55;;;21.65;51.38
77381;BME280;66439;50.106;10.996;2023-06-10T07:44:44;98518.04;;;21.67;51.25
77381;BME280;66439;50.106;10.996;2023-06-10T07:46:47;98517.14;;;21.72;51.22
77381;BME280;66439;50.106;10.996;2023-06-10T07:48:50;98519.51;;;21.77;51.25
77381;BME280;66439;50.106;10.996;2023-06-10T07:50:53;98516.20;;;21.84;51.07
77381;BME280;66439;50.106;10.996;2023-06-10T07:52:57;98515.86;;;21.92;50.76
77381;BME280;66439;50.106;10.996;2023-06-10T07:55:00;98513.23;;;21.95;50.68
77381;BME280;66439;50.106;10.996;2023-06-10T07:57:03;98511.14;;;22.00;50.79
77381;BME280;66439;50.106;10.996;2023-06-10T07:59:06;98513.11;;;22.04;50.57
77381;BME280;66439;50.106;10.996;2023-06-10T08:01:09;98513.73;;;22.08;50.21
77381;BME280;66439;50.106;10.996;2023-06-10T08:03:12;98513.73;;;22.13;50.52
77381;BME280;66439;50.106;10.996;2023-06-10T08:05:15;98515.34;;;22.19;50.48
77381;BME280;66439;50.106;10.996;2023-06-10T08:07:17;98517.02;;;22.23;50.01
77381;BME280;66439;50.106;10.996;2023-06-10T08:09:21;98514.02;;;22.26;50.13
77381;BME280;66439;50.106;10.996;2023-06-10T08:11:25;98512.91;;;22.31;50.23
77381;BME280;66439;50.106;10.996;2023-06-10T08:13:30;98512.02;;;22.40;50.34
77381;BME280;66439;50.106;10.996;2023-06-10T08:15:34;98511.73;;;22.47;49.92
77381;BME280;66439;50.106;10.996;2023-06-10T08:17:37;98510.02;;;22.53;49.92
77381;BME280;66439;50.106;10.996;2023-06-10T08:19:40;98511.64;;;22.56;49.53
77381;BME280;66439;50.106;10.996;2023-06-10T08:21:42;98511.11;;;22.61;49.49
77381;BME280;66439;50.106;10.996;2023-06-10T08:23:45;98511.72;;;22.64;49.34
77381;BME280;66439;50.106;10.996;2023-06-10T08:25:47;98508.59;;;22.68;49.29
77381;BME280;66439;50.106;10.996;2023-06-10T08:27:50;98511.04;;;22.70;49.04
77381;BME280;66439;50.106;10.996;2023-06-10T08:29:54;98507.20;;;22.70;48.86
77381;BME280;66439;50.106;10.996;2023-06-10T08:31:57;98512.08;;;22.72;48.83
77381;BME280;66439;50.106;10.996;2023-06-10T08:34:00;98513.01;;;22.76;49.02
77381;BME280;66439;50.106;10.996;2023-06-10T08:36:04;98512.80;;;22.80;48.90
77381;BME280;66439;50.106;10.996;2023-06-10T08:38:07;98507.23;;;22.85;48.48
77381;BME280;66439;50.106;10.996;2023-06-10T08:40:10;98509.51;;;22.88;48.40
77381;BME280;66439;50.106;10.996;2023-06-10T08:42:28;98508.46;;;22.94;48.51
77381;BME280;66439;50.106;10.996;2023-06-10T08:44:36;98503.71;;;23.02;48.43
77381;BME280;66439;50.106;10.996;2023-06-10T08:46:44;98508.00;;;23.10;48.18
77381;BME280;66439;50.106;10.996;2023-06-10T08:48:48;98503.67;;;23.17;48.18
77381;BME280;66439;50.106;10.996;2023-06-10T08:50:57;98503.62;;;23.24;48.08
77381;BME280;66439;50.106;10.996;2023-06-10T08:53:01;98501.73;;;23.29;47.86
77381;BME280;66439;50.106;10.996;2023-06-10T08:55:11;98499.45;;;23.36;47.57
77381;BME280;66439;50.106;10.996;2023-06-10T08:57:15;98500.42;;;23.39;47.03
77381;BME280;66439;50.106;10.996;2023-06-10T08:59:20;98498.90;;;23.43;46.96
77381;BME280;66439;50.106;10.996;2023-06-10T09:01:25;98498.14;;;23.47;46.63
77381;BME280;66439;50.106;10.996;2023-06-10T09:03:28;98500.15;;;23.49;46.69
77381;BME280;66439;50.106;10.996;2023-06-10T09:05:34;98500.63;;;23.54;46.93
77381;BME280;66439;50.106;10.996;2023-06-10T09:07:39;98501.44;;;23.61;46.97
77381;BME280;66439;50.106;10.996;2023-06-10T09:09:44;98497.33;;;23.67;46.68
77381;BME280;66439;50.106;10.996;2023-06-10T09:11:47;98497.19;;;23.69;46.44
77381;BME280;66439;50.106;10.996;2023-06-10T09:13:49;98491.73;;;23.71;46.27
77381;BME280;66439;50.106;10.996;2023-06-10T09:15:52;98489.04;;;23.72;46.33
77381;BME280;66439;50.106;10.996;2023-06-10T09:17:56;98488.80;;;23.74;45.42
77381;BME280;66439;50.106;10.996;2023-06-10T09:19:59;98487.29;;;23.75;44.72
77381;BME280;66439;50.106;10.996;2023-06-10T09:22:06;98491.73;;;23.79;44.44
77381;BME280;66439;50.106;10.996;2023-06-10T09:24:09;98490.74;;;23.81;44.42
77381;BME280;66439;50.106;10.996;2023-06-10T09:26:12;98491.99;;;23.82;44.19
77381;BME280;66439;50.106;10.996;2023-06-10T09:28:15;98491.29;;;23.81;44.24
77381;BME280;66439;50.106;10.996;2023-06-10T09:30:32;98486.57;;;23.80;44.19
77381;BME280;66439;50.106;10.996;2023-06-10T09:32:39;98491.83;;;23.82;44.24
77381;BME280;66439;50.106;10.996;2023-06-10T09:34:43;98486.23;;;23.82;44.37
77381;BME280;66439;50.106;10.996;2023-06-10T09:36:46;98488.23;;;23.87;44.86
77381;BME280;66439;50.106;10.996;2023-06-10T09:38:49;98487.30;;;23.91;44.58
77381;BME280;66439;50.106;10.996;2023-06-10T09:40:54;98485.45;;;23.96;44.66
77381;BME280;66439;50.106;10.996;2023-06-10T09:43:00;98483.31;;;23.97;44.04
77381;BME280;66439;50.106;10.996;2023-06-10T09:45:04;98478.91;;;24.02;44.16
77381;BME280;66439;50.106;10.996;2023-06-10T09:47:07;98475.79;;;24.08;44.20
77381;BME280;66439;50.106;10.996;2023-06-10T09:49:10;98479.80;;;24.12;44.29
77381;BME280;66439;50.106;10.996;2023-06-10T09:51:14;98478.48;;;24.17;44.38
77381;BME280;66439;50.106;10.996;2023-06-10T09:53:17;98477.71;;;24.20;44.14
77381;BME280;66439;50.106;10.996;2023-06-10T09:55:21;98480.04;;;24.23;43.93
77381;BME280;66439;50.106;10.996;2023-06-10T09:57:23;98476.71;;;24.26;43.18
77381;BME280;66439;50.106;10.996;2023-06-10T09:59:30;98470.61;;;24.28;43.14
77381;BME280;66439;50.106;10.996;2023-06-10T10:01:34;98467.23;;;24.33;43.30
77381;BME280;66439;50.106;10.996;2023-06-10T10:03:48;98463.08;;;24.35;42.99
77381;BME280;66439;50.106;10.996;2023-06-10T10:05:57;98466.08;;;24.34;42.70
77381;BME280;66439;50.106;10.996;2023-06-10T10:08:01;98466.25;;;24.33;42.78
77381;BME280;66439;50.106;10.996;2023-06-10T10:10:05;98463.96;;;24.33;42.77
77381;BME280;66439;50.106;10.996;2023-06-10T10:12:10;98462.72;;;24.32;43.22
77381;BME280;66439;50.106;10.996;2023-06-10T10:14:15;98460.23;;;24.33;43.06
77381;BME280;66439;50.106;10.996;2023-06-10T10:16:33;98462.87;;;24.34;43.05
77381;BME280;66439;50.106;10.996;2023-06-10T10:18:41;98460.86;;;24.35;42.89
77381;BME280;66439;50.106;10.996;2023-06-10T10:20:50;98462.31;;;24.35;42.90
77381;BME280;66439;50.106;10.996;2023-06-10T10:22:57;98462.91;;;24.35;43.18
77381;BME280;66439;50.106;10.996;2023-06-10T10:25:02;98461.06;;;24.35;42.86
77381;BME280;66439;50.106;10.996;2023-06-10T10:27:17;98458.58;;;24.39;43.12
77381;BME280;66439;50.106;10.996;2023-06-10T10:29:39;98460.30;;;24.43;43.10
77381;BME280;66439;50.106;10.996;2023-06-10T10:31:43;98458.35;;;24.53;43.12
77381;BME280;66439;50.106;10.996;2023-06-10T10:33:58;98457.10;;;24.63;43.18
77381;BME280;66439;50.106;10.996;2023-06-10T10:36:03;98448.71;;;24.74;42.41
77381;BME280;66439;50.106;10.996;2023-06-10T10:38:06;98452.34;;;24.84;42.30
77381;BME280;66439;50.106;10.996;2023-06-10T10:40:09;98447.59;;;24.94;42.13
77381;BME280;66439;50.106;10.996;2023-06-10T10:42:13;98448.82;;;25.05;41.48
77381;BME280;66439;50.106;10.996;2023-06-10T10:44:16;98445.95;;;25.13;40.96
77381;BME280;66439;50.106;10.996;2023-06-10T10:46:20;98438.77;;;25.20;41.20
77381;BME280;66439;50.106;10.996;2023-06-10T10:48:23;98448.38;;;25.29;41.59
77381;BME280;66439;50.106;10.996;2023-06-10T10:50:28;98443.29;;;25.39;41.35
77381;BME280;66439;50.106;10.996;2023-06-10T10:54:56;98450.80;;;25.56;40.94